KAL433 RKSI-WADD
Flight info
| Callsign | KAL433 |
|---|---|
| Flight time | N/A |
| Altitude | 36000 |
| Route | BOPTA2A BOPTA Z51 BEDES Y711 KIDOS Z81 CJU Y572 RUGMA Y579 RUSAR Y27 SAKON/N0481F350 DCT GURAG/N0482F360 G578 EMTAS |
| Aircraft | B77W/H-SDE1E2E3FGHIJ2J3J4J5M1RWXY/LB1D1 |
Departure
| Time | N/A |
|---|---|
| Airport | Incheon International Airport (RKSI) |
Arrival
| Time | 2026-05-04 19:36 |
|---|---|
| Airport | Denpasar I Gusti Ngurah Rai International Airport (WADD) |
| Time | Latitude | Longitude | Altitude | Speed | Heading |
|---|---|---|---|---|---|
| 2026-05-04 19:20 | -8.15713 | 115.00651 | 13959 ft | 392 kts | 213° |
| 2026-05-04 19:21 | -8.17958 | 114.99108 | 13416 ft | 389 kts | 213° |
| 2026-05-04 19:21 | -8.20191 | 114.97573 | 12832 ft | 387 kts | 213° |
| 2026-05-04 19:21 | -8.22412 | 114.96047 | 12259 ft | 385 kts | 213° |
| 2026-05-04 19:21 | -8.24616 | 114.94531 | 11713 ft | 382 kts | 213° |
| 2026-05-04 19:22 | -8.26812 | 114.93022 | 11152 ft | 380 kts | 213° |
| 2026-05-04 19:22 | -8.28995 | 114.91520 | 10592 ft | 379 kts | 213° |
| 2026-05-04 19:22 | -8.31162 | 114.90029 | 10154 ft | 370 kts | 213° |
| 2026-05-04 19:22 | -8.33237 | 114.88600 | 9920 ft | 359 kts | 213° |
| 2026-05-04 19:23 | -8.35287 | 114.87190 | 9883 ft | 355 kts | 213° |
| 2026-05-04 19:23 | -8.37262 | 114.85831 | 9756 ft | 331 kts | 213° |
| 2026-05-04 19:23 | -8.39124 | 114.84548 | 9656 ft | 317 kts | 213° |
| 2026-05-04 19:23 | -8.40896 | 114.83327 | 9494 ft | 301 kts | 213° |
| 2026-05-04 19:24 | -8.42577 | 114.82170 | 9263 ft | 295 kts | 213° |
| 2026-05-04 19:24 | -8.44275 | 114.81002 | 9237 ft | 295 kts | 213° |
| 2026-05-04 19:24 | -8.45972 | 114.79834 | 9216 ft | 295 kts | 213° |
| 2026-05-04 19:24 | -8.47670 | 114.78665 | 9179 ft | 295 kts | 213° |
| 2026-05-04 19:25 | -8.49368 | 114.77496 | 9153 ft | 296 kts | 213° |
| 2026-05-04 19:25 | -8.51076 | 114.76321 | 8922 ft | 298 kts | 212° |
| 2026-05-04 19:25 | -8.52797 | 114.75189 | 8564 ft | 287 kts | 204° |
| 2026-05-04 19:25 | -8.54637 | 114.74735 | 8238 ft | 262 kts | 176° |
| 2026-05-04 19:26 | -8.56360 | 114.75057 | 7971 ft | 249 kts | 159° |
| 2026-05-04 19:26 | -8.57958 | 114.75845 | 7718 ft | 267 kts | 143° |
| 2026-05-04 19:26 | -8.59432 | 114.77028 | 7576 ft | 268 kts | 137° |
| 2026-05-04 19:26 | -8.60827 | 114.78266 | 7124 ft | 269 kts | 137° |
| 2026-05-04 19:27 | -8.62215 | 114.79511 | 6813 ft | 258 kts | 136° |
| 2026-05-04 19:27 | -8.63511 | 114.80663 | 6557 ft | 239 kts | 137° |
| 2026-05-04 19:27 | -8.64709 | 114.81721 | 6246 ft | 224 kts | 137° |
| 2026-05-04 19:27 | -8.65869 | 114.82740 | 5918 ft | 220 kts | 137° |
| 2026-05-04 19:28 | -8.67036 | 114.83762 | 5653 ft | 218 kts | 137° |
| 2026-05-04 19:28 | -8.68180 | 114.84759 | 5390 ft | 217 kts | 137° |
| 2026-05-04 19:28 | -8.69311 | 114.85742 | 5183 ft | 212 kts | 137° |
| 2026-05-04 19:28 | -8.70417 | 114.86703 | 4884 ft | 212 kts | 137° |
| 2026-05-04 19:29 | -8.71533 | 114.87671 | 4644 ft | 211 kts | 137° |
| 2026-05-04 19:29 | -8.72646 | 114.88636 | 4376 ft | 210 kts | 137° |
| 2026-05-04 19:29 | -8.73750 | 114.89593 | 4117 ft | 208 kts | 137° |
| 2026-05-04 19:29 | -8.74826 | 114.90556 | 3854 ft | 203 kts | 129° |
| 2026-05-04 19:30 | -8.75414 | 114.91788 | 3656 ft | 190 kts | 99° |
| 2026-05-04 19:30 | -8.75498 | 114.93065 | 3558 ft | 176 kts | 91° |
| 2026-05-04 19:30 | -8.75504 | 114.94278 | 3504 ft | 171 kts | 91° |
| 2026-05-04 19:30 | -8.75507 | 114.95466 | 3437 ft | 169 kts | 90° |
| 2026-05-04 19:31 | -8.75511 | 114.96654 | 3357 ft | 169 kts | 90° |
| 2026-05-04 19:31 | -8.75515 | 114.97858 | 3206 ft | 175 kts | 91° |
| 2026-05-04 19:31 | -8.75521 | 114.99080 | 2998 ft | 171 kts | 91° |
| 2026-05-04 19:31 | -8.75493 | 115.00235 | 2785 ft | 160 kts | 89° |
| 2026-05-04 19:32 | -8.75447 | 115.01300 | 2574 ft | 143 kts | 90° |
| 2026-05-04 19:32 | -8.75408 | 115.02265 | 2420 ft | 136 kts | 90° |
| 2026-05-04 19:32 | -8.75369 | 115.03221 | 2303 ft | 136 kts | 90° |
| 2026-05-04 19:32 | -8.75331 | 115.04178 | 2099 ft | 136 kts | 90° |
| 2026-05-04 19:33 | -8.75293 | 115.05130 | 1923 ft | 135 kts | 90° |
| 2026-05-04 19:33 | -8.75256 | 115.06077 | 1811 ft | 134 kts | 90° |
| 2026-05-04 19:33 | -8.75220 | 115.07023 | 1769 ft | 136 kts | 89° |
| 2026-05-04 19:33 | -8.75188 | 115.07983 | 1568 ft | 139 kts | 89° |
| 2026-05-04 19:34 | -8.75160 | 115.08952 | 1304 ft | 136 kts | 89° |
| 2026-05-04 19:34 | -8.75116 | 115.09906 | 1065 ft | 138 kts | 90° |
| 2026-05-04 19:34 | -8.75073 | 115.10880 | 821 ft | 137 kts | 89° |
| 2026-05-04 19:34 | -8.75031 | 115.11818 | 669 ft | 133 kts | 89° |
| 2026-05-04 19:35 | -8.74989 | 115.12754 | 483 ft | 137 kts | 90° |
| 2026-05-04 19:35 | -8.74947 | 115.13727 | 429 ft | 138 kts | 89° |
| 2026-05-04 19:35 | -8.74928 | 115.14698 | 227 ft | 139 kts | 89° |
| 2026-05-04 19:35 | -8.74882 | 115.15668 | 32 ft | 136 kts | 89° |
| 2026-05-04 19:36 | -8.74849 | 115.16517 | 29 ft | 98 kts | 87° |
| 2026-05-04 19:36 | -8.74828 | 115.17021 | 27 ft | 45 kts | 87° |
| 2026-05-04 19:36 | -8.74820 | 115.17198 | 26 ft | 19 kts | 88° |
| 2026-05-04 19:36 | -8.74800 | 115.17301 | 28 ft | 11 kts | 45° |
| 2026-05-04 19:37 | -8.74730 | 115.17312 | 29 ft | 9 kts | 356° |
| 2026-05-04 19:37 | -8.74705 | 115.17311 | 28 ft | 0 kts | 356° |
| 2026-05-04 19:37 | -8.74697 | 115.17310 | 27 ft | 4 kts | 356° |
| 2026-05-04 19:37 | -8.74654 | 115.17273 | 30 ft | 10 kts | 293° |
| 2026-05-04 19:38 | -8.74651 | 115.17204 | 25 ft | 10 kts | 267° |
| 2026-05-04 19:38 | -8.74655 | 115.17126 | 29 ft | 12 kts | 267° |
| 2026-05-04 19:38 | -8.74660 | 115.17040 | 26 ft | 13 kts | 267° |
| 2026-05-04 19:38 | -8.74664 | 115.16955 | 28 ft | 9 kts | 268° |
| 2026-05-04 19:39 | -8.74640 | 115.16919 | 26 ft | 5 kts | 343° |
| 2026-05-04 19:39 | -8.74603 | 115.16932 | 29 ft | 5 kts | 17° |
| 2026-05-04 19:39 | -8.74564 | 115.16932 | 28 ft | 6 kts | 356° |
| 2026-05-04 19:39 | -8.74548 | 115.16931 | 26 ft | 0 kts | 356° |